createdAt,value
2023-12-31T00:01:00.340Z,65568.56
2023-12-31T00:06:26.141Z,65646.13
2023-12-31T00:11:30.264Z,65572.41
2023-12-31T00:16:35.034Z,65530.16
2023-12-31T00:21:45.180Z,65505.75
2023-12-31T00:26:50.031Z,65696.75
2023-12-31T00:31:54.665Z,65666.94
2023-12-31T00:37:00.614Z,65602.28
2023-12-31T00:42:06.210Z,65676.91
2023-12-31T00:47:10.829Z,65706.16
2023-12-31T00:52:16.927Z,65680.72
2023-12-31T00:57:21.767Z,65641.34
2023-12-31T01:02:26.133Z,65706.34
2023-12-31T01:07:32.069Z,65598.44
2023-12-31T01:12:36.687Z,65563.78
2023-12-31T01:17:41.294Z,65612.84
2023-12-31T01:22:47.404Z,65703.59
2023-12-31T01:27:55.068Z,65715.44
2023-12-31T01:33:00.553Z,65742.03
2023-12-31T01:38:06.865Z,65827.53
2023-12-31T01:43:11.665Z,65805.81
2023-12-31T01:48:17.356Z,65755.81
2023-12-31T01:53:23.388Z,65816.94
2023-12-31T01:58:28.316Z,65747.03
2023-12-31T02:03:33.385Z,65798.25
2023-12-31T02:08:39.933Z,65870.75
2023-12-31T02:13:45.369Z,65889.00
2023-12-31T02:18:50.325Z,65875.22
2023-12-31T02:23:56.667Z,65935.03
2023-12-31T02:29:02.678Z,65943.56
2023-12-31T02:34:08.157Z,65986.47
2023-12-31T02:39:13.011Z,65999.38
2023-12-31T02:44:19.702Z,65949.53
2023-12-31T02:49:25.516Z,65965.59
2023-12-31T02:54:30.172Z,65845.81
2023-12-31T02:59:36.280Z,65920.56
2023-12-31T03:04:42.112Z,65957.13
2023-12-31T03:09:47.321Z,65902.47
2023-12-31T03:14:53.288Z,65894.00
2023-12-31T03:19:58.721Z,65846.78
2023-12-31T03:25:03.290Z,65847.75
2023-12-31T03:30:10.220Z,65816.94
2023-12-31T03:35:15.025Z,65710.53
2023-12-31T03:40:20.602Z,65792.28
2023-12-31T03:45:26.412Z,65779.97
2023-12-31T03:50:30.635Z,65790.66
2023-12-31T03:55:35.134Z,65707.31
2023-12-31T04:00:41.195Z,65689.69
2023-12-31T04:05:45.773Z,65690.31
2023-12-31T04:10:50.460Z,65699.84
2023-12-31T04:15:56.690Z,65624.78
2023-12-31T04:21:03.795Z,65671.09
2023-12-31T04:26:08.597Z,65542.97
2023-12-31T04:31:14.517Z,65606.53
2023-12-31T04:36:19.032Z,65601.19
2023-12-31T04:41:25.677Z,65564.31
2023-12-31T04:46:31.685Z,65518.13
2023-12-31T04:51:36.208Z,65505.66
2023-12-31T04:56:40.737Z,65605.81
2023-12-31T05:01:47.045Z,65508.00
2023-12-31T05:06:51.825Z,65493.59
2023-12-31T05:11:56.287Z,65524.41
2023-12-31T05:17:02.432Z,65515.25
2023-12-31T05:22:07.018Z,65551.50
2023-12-31T05:27:12.971Z,65512.06
2023-12-31T05:32:19.578Z,65532.50
2023-12-31T05:37:24.702Z,65501.38
2023-12-31T05:42:29.903Z,65539.31
2023-12-31T05:47:45.867Z,65552.69
2023-12-31T05:52:54.394Z,65563.78
2023-12-31T05:58:00.432Z,65559.59
2023-12-31T06:03:07.226Z,65471.09
2023-12-31T06:08:13.355Z,65473.13
2023-12-31T06:13:17.705Z,65485.50
2023-12-31T06:18:23.552Z,65481.75
2023-12-31T06:23:28.221Z,65506.28
2023-12-31T06:28:32.731Z,65554.72
2023-12-31T06:33:38.882Z,65602.69
2023-12-31T06:38:43.417Z,65621.47
2023-12-31T06:43:48.054Z,65546.78
2023-12-31T06:48:54.151Z,65492.88
2023-12-31T06:53:59.573Z,65462.66
2023-12-31T06:59:04.247Z,65569.09
2023-12-31T07:04:09.985Z,65579.78
2023-12-31T07:09:14.342Z,65595.13
2023-12-31T07:14:18.862Z,65623.63
2023-12-31T07:19:24.874Z,65664.81
2023-12-31T07:24:29.304Z,65595.88
2023-12-31T07:29:33.799Z,65591.72
2023-12-31T07:34:39.744Z,65644.97
2023-12-31T07:39:43.773Z,65706.34
2023-12-31T07:44:48.309Z,65704.19
2023-12-31T07:49:54.323Z,65738.84
2023-12-31T07:54:58.505Z,65636.44
2023-12-31T08:00:03.333Z,65698.34
2023-12-31T08:05:17.780Z,65672.09
2023-12-31T08:10:22.278Z,65630.91
2023-12-31T08:15:26.842Z,65668.34
2023-12-31T08:20:34.787Z,65599.50
2023-12-31T08:25:39.350Z,65630.53
2023-12-31T08:30:48.315Z,65694.94
2023-12-31T08:35:54.545Z,65750.69
2023-12-31T08:41:16.473Z,65771.59
2023-12-31T08:46:22.262Z,65719.16
2023-12-31T08:51:29.623Z,65751.75
2023-12-31T08:56:34.198Z,65754.50
2023-12-31T09:01:39.050Z,65658.31
2023-12-31T09:06:46.305Z,65703.13
2023-12-31T09:19:33.293Z,65846.78
2023-12-31T11:10:16.162Z,65999.75
2023-12-31T11:36:12.594Z,66084.53
2023-12-31T11:41:46.617Z,66074.25
2023-12-31T11:46:55.917Z,66112.22
2023-12-31T11:52:11.401Z,66124.06
2023-12-31T11:57:23.916Z,66181.94
2023-12-31T12:02:39.538Z,66167.84
2023-12-31T12:08:06.507Z,66202.41
2023-12-31T12:13:24.362Z,66138.53
2023-12-31T12:23:51.357Z,66167.00
2023-12-31T12:44:02.829Z,66155.16
2023-12-31T12:49:28.735Z,66170.25
2023-12-31T12:54:45.051Z,66117.03
2023-12-31T12:59:59.321Z,66168.19
2023-12-31T13:05:04.272Z,66150.34
2023-12-31T13:10:11.375Z,66168.19
2023-12-31T13:15:25.574Z,66168.53
2023-12-31T13:20:31.214Z,66143.53
2023-12-31T13:25:36.112Z,66181.41
2023-12-31T13:31:12.249Z,66166.47
2023-12-31T13:36:17.146Z,66111.69
2023-12-31T13:41:31.338Z,66196.41
2023-12-31T14:01:24.610Z,66192.22
2023-12-31T14:06:29.729Z,66217.31
2023-12-31T14:11:37.917Z,66192.22
2023-12-31T14:17:04.306Z,66121.94
2023-12-31T14:22:34.003Z,65991.91
2023-12-31T14:27:45.620Z,65944.19
2023-12-31T14:32:53.478Z,65880.66
2023-12-31T14:37:59.480Z,65831.91
2023-12-31T14:43:07.958Z,65962.38
2023-12-31T14:48:14.151Z,65829.78
2023-12-31T16:11:54.465Z,65961.75
2023-12-31T16:17:03.066Z,65994.38
2023-12-31T16:22:09.253Z,65945.81
2023-12-31T16:27:36.233Z,65993.84
2023-12-31T16:33:54.667Z,65953.38
2023-12-31T16:39:25.484Z,65978.88
2023-12-31T16:45:08.883Z,65928.06
2023-12-31T16:50:48.834Z,65921.72
2023-12-31T17:14:06.511Z,65878.84
2023-12-31T17:19:20.390Z,65912.09
2023-12-31T17:24:28.528Z,66006.28
2023-12-31T17:29:39.960Z,66041.13
2023-12-31T17:41:27.552Z,66102.81
2023-12-31T18:00:30.822Z,66128.34
2023-12-31T18:11:45.976Z,66126.22
2023-12-31T18:17:03.106Z,66146.56
2023-12-31T18:23:25.770Z,66095.78
2023-12-31T18:28:33.228Z,66126.66
2023-12-31T18:33:39.686Z,66036.88
2023-12-31T19:29:40.133Z,65915.41
2023-12-31T19:42:48.465Z,65931.44
2023-12-31T19:59:52.222Z,65978.53
2023-12-31T20:05:55.052Z,66020.63
2023-12-31T20:11:58.514Z,66008.41
2023-12-31T20:17:47.094Z,66021.88
2023-12-31T20:30:08.062Z,66046.44
2023-12-31T20:35:17.515Z,66035.59
2023-12-31T20:43:32.374Z,65988.50
2023-12-31T20:48:50.071Z,66088.63
2023-12-31T20:54:21.857Z,66097.75
2023-12-31T21:00:01.440Z,66103.19
2023-12-31T21:05:11.910Z,66145.06
2023-12-31T21:23:41.419Z,66037.31
2023-12-31T21:29:00.965Z,66094.63
2023-12-31T21:34:14.790Z,66129.88
2023-12-31T21:39:19.724Z,66105.88
2023-12-31T21:44:28.273Z,66110.16
2023-12-31T21:49:33.134Z,66051.97
2023-12-31T21:54:38.043Z,66080.78
2023-12-31T21:59:44.362Z,66136.31
2023-12-31T22:04:49.942Z,66067.41
2023-12-31T22:10:01.894Z,66089.53
2023-12-31T22:15:09.568Z,66095.78
2023-12-31T22:20:18.088Z,66105.78
2023-12-31T22:25:23.340Z,66072.31
2023-12-31T22:30:30.006Z,66033.47
2023-12-31T22:35:34.670Z,66032.03
2023-12-31T22:40:42.002Z,66009.03
2023-12-31T22:45:48.462Z,65982.91
2023-12-31T22:50:53.330Z,65996.53
2023-12-31T22:55:59.040Z,65976.31
2023-12-31T23:01:05.295Z,65964.00
2023-12-31T23:06:13.943Z,66010.00
2023-12-31T23:11:18.796Z,66034.63
2023-12-31T23:16:25.153Z,66028.66
2023-12-31T23:21:51.005Z,66011.59
2023-12-31T23:26:56.000Z,65967.53
2023-12-31T23:32:02.108Z,65986.34
2023-12-31T23:37:09.521Z,66006.81
2023-12-31T23:42:16.013Z,65938.66
2023-12-31T23:47:23.249Z,65987.63
2023-12-31T23:52:29.975Z,66018.22
2023-12-31T23:57:38.205Z,66048.03
